Time;durP1;ratioP1;P1;durP2;ratioP2;P2;SDS_P1;SDS_P2;PMS_P1;PMS_P2;Temp;Humidity;BMP_temperature;BMP_pressure;BME280_temperature;BME280_humidity;BME280_pressure;Samples;Min_cycle;Max_cycle;Signal;HPM_P1;HPM_P2
2023/09/23 00:02:24;;;;;;;36.58;12.73;;;24.00;99.90;;;;;;5075373;28;20032;-81
2023/09/23 00:04:51;;;;;;;40.13;13.05;;;24.00;99.90;;;;;;5075002;28;20047;-81
2023/09/23 00:07:17;;;;;;;38.38;13.90;;;24.00;99.90;;;;;;5075079;28;20074;-80
2023/09/23 00:09:44;;;;;;;28.40;12.25;;;24.00;99.90;;;;;;5075209;28;20025;-81
2023/09/23 00:12:12;;;;;;;39.08;13.20;;;24.00;99.90;;;;;;5075027;28;20052;-81
2023/09/23 00:14:38;;;;;;;40.38;13.80;;;24.00;99.90;;;;;;5074657;28;20086;-81
2023/09/23 00:17:06;;;;;;;36.70;14.18;;;24.00;99.90;;;;;;5074611;28;20035;-81
2023/09/23 00:19:34;;;;;;;33.88;13.02;;;24.00;99.90;;;;;;5074641;28;20071;-81
2023/09/23 00:22:02;;;;;;;28.38;13.07;;;24.00;99.90;;;;;;5074857;28;20029;-81
2023/09/23 00:24:30;;;;;;;37.17;13.88;;;24.10;99.90;;;;;;5074724;28;20048;-81
2023/09/23 00:26:59;;;;;;;38.75;12.85;;;24.00;99.90;;;;;;5074627;28;20519;-81
2023/09/23 00:29:28;;;;;;;38.95;12.70;;;24.00;99.90;;;;;;5074801;28;20075;-81
2023/09/23 00:32:01;;;;;;;41.03;13.85;;;24.00;99.90;;;;;;5073417;28;20020;-81
2023/09/23 00:34:29;;;;;;;36.88;14.43;;;24.00;99.90;;;;;;5074711;28;20078;-81
2023/09/23 00:36:55;;;;;;;29.23;13.80;;;24.00;99.90;;;;;;5073939;28;20020;-81
2023/09/23 00:39:22;;;;;;;34.70;13.32;;;24.00;99.90;;;;;;5074177;28;20040;-81
2023/09/23 00:41:48;;;;;;;31.85;13.18;;;24.00;99.90;;;;;;5074524;28;20020;-81
2023/09/23 00:44:15;;;;;;;32.20;12.77;;;24.00;99.90;;;;;;5073247;28;20051;-81
2023/09/23 00:46:44;;;;;;;32.90;12.52;;;23.90;99.90;;;;;;5074015;28;20027;-81
2023/09/23 00:49:12;;;;;;;29.65;13.23;;;23.90;99.90;;;;;;5074223;28;20029;-81
2023/09/23 00:51:40;;;;;;;33.53;13.15;;;23.90;99.90;;;;;;5074347;28;20024;-81
2023/09/23 00:54:13;;;;;;;35.13;12.85;;;23.90;99.90;;;;;;5074193;28;20382;-81
2023/09/23 00:56:41;;;;;;;41.67;13.60;;;23.90;99.90;;;;;;5074152;28;20107;-81
2023/09/23 00:59:08;;;;;;;41.88;12.68;;;23.90;99.90;;;;;;5072450;28;20115;-81
2023/09/23 01:01:35;;;;;;;37.83;14.20;;;23.90;99.90;;;;;;5074005;28;20039;-81
2023/09/23 01:04:01;;;;;;;39.97;12.43;;;23.90;99.90;;;;;;5072034;28;20021;-81
2023/09/23 01:06:28;;;;;;;30.08;12.77;;;23.90;99.90;;;;;;5072593;28;20028;-81
2023/09/23 01:08:57;;;;;;;36.28;13.70;;;23.90;99.90;;;;;;5074047;28;20384;-81
2023/09/23 01:11:26;;;;;;;36.55;13.20;;;23.90;99.90;;;;;;5073688;28;20029;-81
2023/09/23 01:13:53;;;;;;;29.30;12.35;;;23.90;99.90;;;;;;5073851;28;20020;-81
2023/09/23 01:16:21;;;;;;;35.42;12.95;;;23.90;99.90;;;;;;5072387;28;20063;-81
2023/09/23 01:18:49;;;;;;;46.58;13.30;;;23.90;99.90;;;;;;5073565;28;20110;-81
2023/09/23 01:21:16;;;;;;;31.77;12.18;;;23.90;99.90;;;;;;5072547;28;20043;-81
2023/09/23 01:23:46;;;;;;;36.03;12.98;;;23.90;99.90;;;;;;5073424;28;20028;-81
2023/09/23 01:26:13;;;;;;;34.78;13.20;;;23.90;99.90;;;;;;5073528;28;20021;-80
2023/09/23 01:28:40;;;;;;;30.90;11.90;;;23.90;99.90;;;;;;5072168;28;20054;-81
2023/09/23 01:31:07;;;;;;;40.88;12.80;;;23.90;99.90;;;;;;5073511;28;20108;-81
2023/09/23 01:33:34;;;;;;;44.78;13.95;;;23.90;99.90;;;;;;5073596;28;20096;-81
2023/09/23 01:36:04;;;;;;;33.35;13.80;;;23.90;99.90;;;;;;5071796;28;20025;-81
2023/09/23 01:38:31;;;;;;;41.35;13.75;;;23.90;99.90;;;;;;5073480;28;20021;-81
2023/09/23 01:41:02;;;;;;;36.83;13.57;;;23.90;99.90;;;;;;5073359;28;20040;-81
2023/09/23 01:43:29;;;;;;;30.30;12.93;;;23.90;99.90;;;;;;5072009;28;20024;-81
2023/09/23 01:46:02;;;;;;;41.50;14.13;;;23.90;99.90;;;;;;5072051;28;20478;-81
2023/09/23 01:48:32;;;;;;;41.87;13.83;;;23.90;99.90;;;;;;5071768;28;20504;-81
2023/09/23 01:51:02;;;;;;;47.42;13.68;;;23.90;99.90;;;;;;5073295;28;20059;-81
2023/09/23 01:53:28;;;;;;;26.25;12.98;;;23.90;99.90;;;;;;5073253;28;20024;-81
2023/09/23 01:55:55;;;;;;;37.78;12.90;;;23.90;99.90;;;;;;5073177;28;20016;-81
2023/09/23 01:58:23;;;;;;;32.95;12.90;;;23.90;99.90;;;;;;5073139;28;20032;-81
2023/09/23 02:00:55;;;;;;;44.95;13.90;;;23.90;99.90;;;;;;5072824;28;20041;-81
2023/09/23 02:03:23;;;;;;;34.83;13.43;;;23.90;99.90;;;;;;5071864;28;20021;-81
2023/09/23 02:05:51;;;;;;;42.40;14.65;;;23.90;99.90;;;;;;5071767;28;20025;-81
2023/09/23 02:08:18;;;;;;;38.58;13.05;;;23.90;99.90;;;;;;5072993;28;20024;-81
2023/09/23 02:10:48;;;;;;;35.17;12.23;;;23.90;99.90;;;;;;5071523;28;20012;-81
2023/09/23 02:13:15;;;;;;;33.90;13.02;;;23.90;99.90;;;;;;5071931;28;20431;-81
2023/09/23 02:15:42;;;;;;;40.65;12.40;;;23.90;99.90;;;;;;5072724;28;20017;-81
2023/09/23 02:18:08;;;;;;;41.40;13.77;;;23.90;99.90;;;;;;5071243;28;20159;-81
2023/09/23 02:20:35;;;;;;;35.60;13.25;;;23.90;99.90;;;;;;5072594;28;20056;-80
2023/09/23 02:23:03;;;;;;;30.65;12.88;;;23.90;99.90;;;;;;5070937;28;20029;-81
2023/09/23 02:25:29;;;;;;;32.25;13.77;;;23.90;99.90;;;;;;5071634;28;20422;-81
2023/09/23 02:27:57;;;;;;;36.17;13.60;;;23.90;99.90;;;;;;5072633;28;20036;-81
2023/09/23 02:30:23;;;;;;;42.97;13.65;;;23.90;99.90;;;;;;5071563;28;20035;-81
2023/09/23 02:32:53;;;;;;;37.65;12.80;;;23.90;99.90;;;;;;5071515;28;20071;-80
2023/09/23 02:35:19;;;;;;;37.05;12.45;;;23.90;99.90;;;;;;5071029;28;20016;-81
2023/09/23 02:37:48;;;;;;;35.10;12.85;;;23.90;99.90;;;;;;5072571;28;20478;-81
2023/09/23 02:40:15;;;;;;;40.80;12.23;;;23.80;99.90;;;;;;5072477;28;20132;-81
2023/09/23 02:42:43;;;;;;;35.50;12.77;;;23.80;99.90;;;;;;5071447;28;20512;-81
2023/09/23 02:45:10;;;;;;;35.80;12.60;;;23.80;99.90;;;;;;5072603;28;20025;-80
2023/09/23 02:47:43;;;;;;;33.58;11.32;;;23.80;99.90;;;;;;5070282;28;20016;-82
2023/09/23 02:50:13;;;;;;;36.83;12.15;;;23.80;99.90;;;;;;5052607;28;20043;-80
2023/09/23 02:52:41;;;;;;;39.95;12.55;;;23.70;99.90;;;;;;5052564;28;20025;-81
2023/09/23 02:55:15;;;;;;;37.25;11.18;;;23.80;99.90;;;;;;5052517;28;20021;-81
2023/09/23 02:57:48;;;;;;;34.25;11.18;;;23.70;99.90;;;;;;5067322;28;20024;-80
2023/09/23 03:00:29;;;;;;;;;;;23.70;99.90;;;;;;5072558;28;20435;-81
2023/09/23 03:03:08;;;;;;;39.70;11.70;;;23.70;99.90;;;;;;5072647;28;19909;-81
2023/09/23 03:05:38;;;;;;;35.60;11.88;;;23.70;99.90;;;;;;5071338;28;20043;-81
2023/09/23 03:08:07;;;;;;;31.77;11.98;;;23.70;99.90;;;;;;5071621;28;20028;-88
2023/09/23 03:10:40;;;;;;;32.85;11.82;;;23.60;99.90;;;;;;5055543;28;20027;-89
2023/09/23 03:13:07;;;;;;;30.70;10.80;;;23.60;99.90;;;;;;5072736;28;20067;-88
2023/09/23 03:15:50;;;;;;;39.97;12.02;;;23.60;99.90;;;;;;5055742;28;20031;-88
2023/09/23 03:18:33;;;;;;;30.08;11.93;;;23.60;99.90;;;;;;5072365;28;20025;-88
2023/09/23 03:21:08;;;;;;;34.17;11.82;;;23.60;99.90;;;;;;5055537;28;20079;-88
2023/09/23 03:23:39;;;;;;;29.20;10.13;;;23.60;99.90;;;;;;5072294;28;20033;-88
2023/09/23 03:26:08;;;;;;;27.90;10.43;;;23.60;99.90;;;;;;5055846;28;20535;-88
2023/09/23 03:28:39;;;;;;;34.53;10.90;;;23.60;99.90;;;;;;5059314;28;20028;-88
2023/09/23 03:31:08;;;;;;;39.85;11.45;;;23.50;99.90;;;;;;5075978;28;20078;-88
2023/09/23 03:33:38;;;;;;;42.00;11.35;;;23.50;99.90;;;;;;5059583;28;20025;-88
2023/09/23 03:36:13;;;;;;;34.05;11.00;;;23.60;99.90;;;;;;5058991;28;20063;-88
2023/09/23 03:38:40;;;;;;;27.50;11.48;;;23.50;99.90;;;;;;5059064;28;20086;-88
2023/09/23 03:41:08;;;;;;;37.40;11.75;;;23.60;99.90;;;;;;5058977;28;20115;-87
2023/09/23 03:43:34;;;;;;;31.65;11.60;;;23.50;99.90;;;;;;5058991;28;20029;-86
2023/09/23 03:46:01;;;;;;;29.80;11.25;;;23.60;99.90;;;;;;5057947;28;20028;-85
2023/09/23 03:48:27;;;;;;;31.70;10.52;;;23.60;99.90;;;;;;5057705;28;20036;-85
2023/09/23 03:50:54;;;;;;;31.05;11.57;;;23.50;99.90;;;;;;5074474;28;20051;-84
2023/09/23 03:53:22;;;;;;;31.05;10.55;;;23.50;99.90;;;;;;5074341;28;20418;-82
2023/09/23 03:55:49;;;;;;;41.35;11.10;;;23.50;99.90;;;;;;5057809;28;20487;-83
2023/09/23 03:58:17;;;;;;;28.25;10.38;;;23.50;99.90;;;;;;5074459;28;20032;-84
2023/09/23 04:00:44;;;;;;;31.10;12.25;;;23.50;99.90;;;;;;5074570;28;20035;-84
2023/09/23 04:03:10;;;;;;;36.42;10.73;;;23.50;99.90;;;;;;5075180;28;20107;-83
2023/09/23 04:05:37;;;;;;;34.35;9.95;;;23.50;99.90;;;;;;5075245;28;20104;-84
2023/09/23 04:08:03;;;;;;;44.25;10.75;;;23.50;99.90;;;;;;5057151;28;20378;-82
2023/09/23 04:10:30;;;;;;;34.30;10.80;;;23.50;99.90;;;;;;5074894;28;20021;-83
2023/09/23 04:12:56;;;;;;;35.78;10.32;;;23.50;99.90;;;;;;5075128;28;20050;-83
2023/09/23 04:15:24;;;;;;;35.80;10.88;;;23.50;99.90;;;;;;5074283;28;20025;-84
2023/09/23 04:17:51;;;;;;;39.63;11.93;;;23.50;99.90;;;;;;5075564;28;20051;-83
2023/09/23 04:20:17;;;;;;;33.90;11.27;;;23.40;99.90;;;;;;5074824;28;20048;-83
2023/09/23 04:22:48;;;;;;;34.88;10.80;;;23.40;99.90;;;;;;5074225;28;20024;-83
2023/09/23 04:25:15;;;;;;;31.92;11.02;;;23.40;99.90;;;;;;5074015;28;20028;-83
2023/09/23 04:27:41;;;;;;;30.98;10.32;;;23.50;99.90;;;;;;5075704;28;20032;-82
2023/09/23 04:30:13;;;;;;;37.80;10.77;;;23.40;99.90;;;;;;5073715;28;20029;-81
2023/09/23 04:32:42;;;;;;;31.60;10.53;;;23.50;99.90;;;;;;5075683;28;20042;-82
2023/09/23 04:35:11;;;;;;;28.58;11.48;;;23.40;99.90;;;;;;5074648;28;20305;-81
2023/09/23 04:37:39;;;;;;;32.35;9.93;;;23.40;99.90;;;;;;5074265;28;20077;-81
2023/09/23 04:40:10;;;;;;;34.90;10.93;;;23.40;99.90;;;;;;5074521;28;20082;-81
2023/09/23 04:42:39;;;;;;;39.83;10.32;;;23.40;99.90;;;;;;5075193;28;20028;-81
2023/09/23 04:45:06;;;;;;;31.17;10.48;;;23.50;99.90;;;;;;5057599;28;20056;-81
2023/09/23 04:47:33;;;;;;;28.92;11.45;;;23.40;99.90;;;;;;5075250;28;20032;-84
2023/09/23 04:50:00;;;;;;;30.15;10.32;;;23.40;99.90;;;;;;5074334;28;20078;-83
2023/09/23 04:52:29;;;;;;;42.88;10.48;;;23.40;99.90;;;;;;5074192;28;20028;-83
2023/09/23 04:54:56;;;;;;;31.73;10.40;;;23.50;99.90;;;;;;5073707;28;20021;-83
2023/09/23 04:57:23;;;;;;;24.45;10.90;;;23.50;99.90;;;;;;5075309;28;20028;-84
2023/09/23 04:59:52;;;;;;;42.33;11.68;;;23.50;99.90;;;;;;5074065;28;20032;-84
2023/09/23 05:02:19;;;;;;;31.88;12.63;;;23.50;99.90;;;;;;5057193;28;20036;-81
2023/09/23 05:04:46;;;;;;;39.83;12.05;;;23.60;99.90;;;;;;5072937;28;20533;-82
2023/09/23 05:07:15;;;;;;;30.60;12.50;;;23.60;99.90;;;;;;5074814;28;20032;-82
2023/09/23 05:09:42;;;;;;;43.92;12.00;;;23.70;99.90;;;;;;5072425;28;20043;-81
2023/09/23 05:12:09;;;;;;;37.00;11.20;;;23.70;99.90;;;;;;5072547;28;20500;-84
2023/09/23 05:14:36;;;;;;;28.10;10.75;;;23.80;99.90;;;;;;5055867;28;20112;-83
2023/09/23 05:17:06;;;;;;;35.55;11.95;;;23.90;99.90;;;;;;5055826;28;20050;-84
2023/09/23 05:19:33;;;;;;;29.48;11.70;;;23.90;99.90;;;;;;5073191;28;20131;-82
2023/09/23 05:22:00;;;;;;;33.58;11.00;;;24.00;99.90;;;;;;5073596;28;20028;-83
2023/09/23 05:24:27;;;;;;;32.35;10.80;;;24.10;99.90;;;;;;5072174;28;20048;-83
2023/09/23 05:26:58;;;;;;;28.88;12.05;;;24.20;99.90;;;;;;5072170;28;20032;-83
2023/09/23 05:29:26;;;;;;;39.03;13.23;;;24.30;99.90;;;;;;5072242;28;20034;-82
2023/09/23 05:31:53;;;;;;;27.30;11.38;;;24.40;99.90;;;;;;5073402;28;20028;-82
2023/09/23 05:34:20;;;;;;;23.95;12.25;;;24.60;99.90;;;;;;5072082;28;20028;-83
2023/09/23 05:36:47;;;;;;;26.63;12.38;;;24.60;99.90;;;;;;5072037;28;20029;-83
2023/09/23 05:39:19;;;;;;;25.05;12.30;;;24.70;99.90;;;;;;5073028;28;20032;-83
2023/09/23 05:41:53;;;;;;;25.52;13.60;;;24.90;99.90;;;;;;5072943;28;20024;-82
2023/09/23 05:44:20;;;;;;;27.60;14.30;;;25.00;99.90;;;;;;5073565;28;20067;-85
2023/09/23 05:46:53;;;;;;;31.13;14.77;;;25.10;99.90;;;;;;5058028;28;20059;-82
2023/09/23 05:49:23;;;;;;;27.73;15.30;;;25.40;99.90;;;;;;5074224;28;20063;-86
2023/09/23 05:51:54;;;;;;;23.35;15.75;;;25.60;99.90;;;;;;5073754;28;20474;-82
2023/09/23 05:54:27;;;;;;;32.60;16.65;;;26.00;99.90;;;;;;5073305;28;20484;-83
2023/09/23 05:58:18;;;;;;;32.85;17.90;;;26.20;99.90;;;;;;5071084;28;20470;-83
2023/09/23 06:00:59;;;;;;;31.45;18.70;;;26.80;99.90;;;;;;5054721;28;20055;-81
2023/09/23 06:03:25;;;;;;;35.53;20.48;;;26.90;99.90;;;;;;5054887;28;20029;-81
2023/09/23 06:05:52;;;;;;;35.40;20.13;;;26.80;99.90;;;;;;5056126;28;20095;-81
2023/09/23 06:08:35;;;;;;;42.85;21.52;;;26.80;99.90;;;;;;5071286;28;20036;-83
2023/09/23 06:11:04;;;;;;;40.78;22.40;;;26.90;99.90;;;;;;5073462;28;20025;-85
2023/09/23 06:13:35;;;;;;;41.90;22.15;;;27.10;99.90;;;;;;5058594;28;20082;-89
2023/09/23 06:16:05;;;;;;;35.13;22.05;;;27.50;99.90;;;;;;5075007;28;20025;-87
2023/09/23 06:18:33;;;;;;;37.25;22.00;;;27.80;99.90;;;;;;5072801;28;20029;-85
2023/09/23 06:21:04;;;;;;;43.30;22.35;;;28.20;99.90;;;;;;5072684;28;20052;-88
2023/09/23 06:23:31;;;;;;;39.45;21.15;;;28.30;99.90;;;;;;5072954;28;20029;-87
2023/09/23 06:26:01;;;;;;;39.47;22.20;;;28.70;99.90;;;;;;5055497;28;20024;-87
2023/09/23 06:28:29;;;;;;;35.25;23.95;;;28.80;99.90;;;;;;5056342;28;20054;-88
2023/09/23 06:31:13;;;;;;;41.65;24.67;;;29.60;99.90;;;;;;5055484;28;20078;-89
2023/09/23 06:33:49;;;;;;;31.63;25.38;;;29.60;99.90;;;;;;5057536;28;20565;-89
2023/09/23 06:36:44;;;;;;;47.85;26.17;;;29.90;99.90;;;;;;5052613;28;20036;-90
2023/09/23 06:39:30;;;;;;;37.10;24.88;;;30.10;99.90;;;;;;5036010;28;20493;-88
2023/09/23 06:42:08;;;;;;;40.72;25.00;;;30.40;99.90;;;;;;5035224;28;20086;-88
2023/09/23 06:44:57;;;;;;;39.80;24.73;;;30.30;99.90;;;;;;5037716;28;20165;-90
2023/09/23 06:47:51;;;;;;;38.22;25.30;;;30.50;99.90;;;;;;5039651;28;20037;-89
2023/09/23 06:50:22;;;;;;;36.45;26.40;;;30.80;99.90;;;;;;5056301;28;20068;-88
2023/09/23 06:53:21;;;;;;;41.63;26.20;;;30.50;99.90;;;;;;5056572;28;20090;-88
2023/09/23 06:56:03;;;;;;;37.70;26.10;;;30.50;99.90;;;;;;5056396;28;20217;-88
2023/09/23 06:58:42;;;;;;;30.67;24.92;;;30.40;99.90;;;;;;5057324;28;20021;-88
2023/09/23 07:01:09;;;;;;;31.30;26.52;;;30.50;99.90;;;;;;5056039;28;20028;-90
2023/09/23 07:03:35;;;;;;;37.58;26.45;;;30.80;99.90;;;;;;5060391;28;20024;-88
2023/09/23 07:06:20;;;;;;;37.58;27.38;;;31.10;99.90;;;;;;5059771;28;20115;-89
2023/09/23 07:08:47;;;;;;;35.53;29.70;;;31.20;99.90;;;;;;5059040;28;20024;-88
2023/09/23 07:11:15;;;;;;;45.42;29.83;;;31.50;99.90;;;;;;5059554;28;20139;-88
2023/09/23 07:13:42;;;;;;;41.83;29.63;;;31.40;99.90;;;;;;5075509;28;20370;-86
2023/09/23 07:16:16;;;;;;;35.60;29.55;;;31.50;99.90;;;;;;5059324;28;20039;-87
2023/09/23 07:18:46;;;;;;;42.10;31.13;;;31.60;99.90;;;;;;5069745;28;20048;-88
2023/09/23 07:21:13;;;;;;;33.63;30.42;;;31.40;99.90;;;;;;5083005;28;20033;-89
2023/09/23 07:23:41;;;;;;;34.85;30.60;;;31.60;99.90;;;;;;5044880;28;20037;-90
2023/09/23 07:26:08;;;;;;;34.38;30.15;;;31.70;99.90;;;;;;5049025;28;20029;-90
2023/09/23 07:28:35;;;;;;;39.60;31.55;;;31.70;99.90;;;;;;5048049;28;20033;-91
2023/09/23 07:31:01;;;;;;;39.88;32.05;;;31.70;99.90;;;;;;5018591;28;20069;-89
2023/09/23 07:33:49;;;;;;;37.17;30.85;;;32.00;99.90;;;;;;5010129;28;20079;-90
2023/09/23 07:36:24;;;;;;;35.65;31.95;;;32.10;99.90;;;;;;5018833;28;20090;-92
2023/09/23 07:38:51;;;;;;;35.20;31.70;;;31.70;99.90;;;;;;5044926;28;20544;-92
2023/09/23 07:41:21;;;;;;;35.28;31.88;;;32.10;99.90;;;;;;5028712;28;20049;-92
2023/09/23 07:43:49;;;;;;;38.38;33.22;;;31.90;99.90;;;;;;5002770;28;20056;-90
2023/09/23 07:46:22;;;;;;;37.47;33.65;;;31.90;99.90;;;;;;5006470;28;20038;-92
2023/09/23 07:48:49;;;;;;;38.15;34.08;;;32.00;99.90;;;;;;5004179;28;20621;-91
2023/09/23 07:51:16;;;;;;;39.40;34.80;;;32.00;99.90;;;;;;5012277;28;20034;-88
2023/09/23 07:53:43;;;;;;;38.28;34.40;;;32.10;99.90;;;;;;4997476;28;20054;-90
2023/09/23 07:56:10;;;;;;;39.00;34.10;;;32.50;99.90;;;;;;5001778;28;20062;-88
2023/09/23 08:01:55;;;;;;;37.90;34.25;;;32.30;99.90;;;;;;5020770;28;20064;-82
2023/09/23 08:04:42;;;;;;;44.35;35.85;;;32.10;99.90;;;;;;5053009;28;20033;-87
2023/09/23 08:07:39;;;;;;;38.58;35.15;;;32.10;99.90;;;;;;5034154;28;20034;-84
2023/09/23 08:10:09;;;;;;;38.38;34.42;;;32.10;99.90;;;;;;5019150;28;20045;-85
2023/09/23 08:12:38;;;;;;;37.78;34.17;;;32.10;99.90;;;;;;5023570;28;20041;-89
2023/09/23 08:15:08;;;;;;;38.33;34.65;;;32.10;99.90;;;;;;5036840;28;20033;-91
2023/09/23 08:17:43;;;;;;;37.97;34.63;;;32.00;99.90;;;;;;5039063;28;20022;-90
2023/09/23 08:20:23;;;;;;;38.33;34.85;;;32.10;99.90;;;;;;5042761;28;20098;-89
2023/09/23 08:23:03;;;;;;;37.78;34.22;;;31.80;99.90;;;;;;5043259;28;20029;-89
2023/09/23 08:25:42;;;;;;;36.15;32.30;;;31.50;99.90;;;;;;5060349;28;20067;-89
2023/09/23 08:28:19;;;;;;;37.38;33.85;;;31.40;99.90;;;;;;4999949;28;20149;-89
2023/09/23 08:31:02;;;;;;;39.97;34.30;;;31.60;99.90;;;;;;5001297;28;20038;-91
2023/09/23 08:33:36;;;;;;;39.17;35.65;;;31.90;99.90;;;;;;5000197;28;20545;-88
2023/09/23 08:36:16;;;;;;;40.95;36.17;;;32.10;99.90;;;;;;4984633;28;20037;-90
2023/09/23 08:38:55;;;;;;;37.67;34.08;;;31.70;99.90;;;;;;5030518;28;20033;-91
2023/09/23 08:41:40;;;;;;;39.47;34.55;;;31.90;99.90;;;;;;5058925;28;20111;-93
2023/09/23 08:44:20;;;;;;;37.25;33.40;;;31.70;99.90;;;;;;5077744;28;20027;-91
2023/09/23 08:47:34;;;;;;;37.25;33.55;;;31.70;99.90;;;;;;5076601;28;20033;-87
2023/09/23 08:50:20;;;;;;;39.58;33.28;;;31.60;99.90;;;;;;5040497;28;20036;-84
2023/09/23 08:53:01;;;;;;;38.50;33.58;;;31.20;99.90;;;;;;5041116;28;20032;-88
2023/09/23 08:55:53;;;;;;;36.17;32.38;;;31.60;99.90;;;;;;5054659;28;20035;-88
2023/09/23 08:58:32;;;;;;;36.80;32.85;;;31.70;99.90;;;;;;5043146;28;20024;-89
2023/09/23 09:01:02;;;;;;;41.08;32.67;;;31.80;99.90;;;;;;5057893;28;20115;-91
2023/09/23 09:03:30;;;;;;;40.55;32.00;;;31.70;99.90;;;;;;5057549;28;20036;-89
2023/09/23 09:05:58;;;;;;;39.38;32.00;;;31.60;99.90;;;;;;5073521;28;20370;-86
2023/09/23 09:08:26;;;;;;;37.05;33.10;;;31.60;99.90;;;;;;5073454;28;20036;-87
2023/09/23 09:10:57;;;;;;;38.20;31.70;;;31.90;99.90;;;;;;5078369;28;20040;-90
2023/09/23 09:13:24;;;;;;;40.47;32.38;;;32.00;99.90;;;;;;5077809;28;20029;-90
2023/09/23 09:15:54;;;;;;;40.88;32.15;;;32.20;99.90;;;;;;5059550;28;20027;-93
2023/09/23 09:18:25;;;;;;;36.80;30.10;;;32.10;99.90;;;;;;5075114;28;20021;-89
2023/09/23 09:20:52;;;;;;;35.83;30.13;;;31.80;99.90;;;;;;5059353;28;20063;-87
2023/09/23 09:23:24;;;;;;;33.90;30.40;;;31.80;99.90;;;;;;5059176;28;20090;-87
2023/09/23 09:26:12;;;;;;;39.90;30.85;;;32.00;99.90;;;;;;5059941;28;20069;-90
2023/09/23 09:28:44;;;;;;;41.20;29.52;;;32.30;99.90;;;;;;5074806;28;20048;-84
2023/09/23 09:31:17;;;;;;;35.08;28.65;;;32.00;99.90;;;;;;5058797;28;20557;-85
2023/09/23 09:33:50;;;;;;;39.00;30.02;;;31.60;99.90;;;;;;5075166;28;20028;-86
2023/09/23 09:36:47;;;;;;;47.45;30.98;;;31.40;99.90;;;;;;5075656;28;20489;-83
2023/09/23 09:39:26;;;;;;;81.22;48.95;;;31.50;99.90;;;;;;5069364;28;20158;-85
2023/09/23 09:41:57;;;;;;;62.42;40.42;;;31.70;99.90;;;;;;5077471;28;20028;-84
2023/09/23 09:44:28;;;;;;;69.53;34.53;;;31.50;99.90;;;;;;5076247;28;20028;-87
2023/09/23 09:47:10;;;;;;;80.32;43.00;;;31.40;99.90;;;;;;5070706;28;20044;-87
2023/09/23 09:50:05;;;;;;;67.43;40.80;;;31.60;99.90;;;;;;5073096;28;20043;-87
2023/09/23 09:52:56;;;;;;;47.58;30.00;;;31.30;99.90;;;;;;5073086;28;20051;-88
2023/09/23 09:55:33;;;;;;;58.65;32.58;;;31.00;99.90;;;;;;5073054;28;20041;-87
2023/09/23 09:58:23;;;;;;;42.83;28.38;;;31.10;99.90;;;;;;5072695;28;20074;-88
2023/09/23 10:01:43;;;;;;;34.15;27.27;;;30.80;99.90;;;;;;5072718;28;20098;-88
2023/09/23 10:04:29;;;;;;;;;;;30.70;99.90;;;;;;5072846;28;20032;-88
2023/09/23 10:07:31;;;;;;;38.42;26.38;;;30.40;99.90;;;;;;5057270;28;20369;-88
2023/09/23 10:10:49;;;;;;;37.58;26.92;;;30.50;99.90;;;;;;5073686;28;20094;-89
2023/09/23 10:13:42;;;;;;;37.65;26.80;;;30.30;99.90;;;;;;5073157;28;20028;-88
2023/09/23 10:16:29;;;;;;;40.35;27.00;;;30.20;99.90;;;;;;5072046;28;20029;-86
2023/09/23 10:19:55;;;;;;;38.10;27.20;;;30.30;99.90;;;;;;5065291;28;20056;-86
2023/09/23 10:22:30;;;;;;;32.83;26.20;;;30.30;99.90;;;;;;5052609;28;20060;-86
2023/09/23 10:25:04;;;;;;;29.80;26.65;;;30.20;99.90;;;;;;5052148;28;20025;-85
2023/09/23 10:27:37;;;;;;;;;;;30.10;99.90;;;;;;5055854;28;20032;-85
2023/09/23 10:30:27;;;;;;;45.88;30.67;;;30.10;99.90;;;;;;5071829;28;19927;-87
2023/09/23 10:33:14;;;;;;;33.42;26.60;;;30.30;99.90;;;;;;5072852;28;20021;-86
2023/09/23 10:35:44;;;;;;;41.78;27.23;;;30.30;99.90;;;;;;5074397;28;20028;-84
2023/09/23 10:38:23;;;;;;;39.00;27.67;;;30.00;99.90;;;;;;5076607;28;20051;-87
2023/09/23 10:40:52;;;;;;;38.58;26.60;;;29.90;99.90;;;;;;5076550;28;20401;-84
2023/09/23 10:43:39;;;;;;;37.78;27.20;;;30.10;99.90;;;;;;5059389;28;20032;-84
2023/09/23 10:46:17;;;;;;;49.33;31.88;;;30.00;99.90;;;;;;5076178;28;20388;-84
2023/09/23 10:49:07;;;;;;;34.42;27.65;;;30.10;99.90;;;;;;5059133;28;20028;-84
2023/09/23 10:52:05;;;;;;;39.38;27.75;;;30.30;99.90;;;;;;5075557;28;20642;-84
2023/09/23 10:54:42;;;;;;;30.52;24.75;;;30.10;99.90;;;;;;5057252;28;20028;-87
2023/09/23 10:57:23;;;;;;;40.03;27.02;;;29.50;99.90;;;;;;5058364;28;20134;-84
2023/09/23 11:00:12;;;;;;;38.40;27.38;;;29.50;99.90;;;;;;5074953;28;20077;-84
2023/09/23 11:03:24;;;;;;;35.22;26.38;;;29.80;99.90;;;;;;5059864;28;20188;-85
2023/09/23 11:06:37;;;;;;;40.97;25.98;;;29.80;99.90;;;;;;5062309;28;20028;-91
2023/09/23 11:09:27;;;;;;;34.15;26.15;;;29.40;99.90;;;;;;5061225;28;20123;-86
2023/09/23 11:12:27;;;;;;;40.47;28.00;;;29.70;99.90;;;;;;5060392;28;20039;-91
2023/09/23 11:15:38;;;;;;;41.65;28.30;;;29.80;99.90;;;;;;5077356;28;20046;-89
2023/09/23 11:18:42;;;;;;;34.33;25.67;;;30.00;99.90;;;;;;5078077;28;20039;-89
2023/09/23 11:21:11;;;;;;;37.90;25.35;;;29.80;99.90;;;;;;5060112;28;20040;-92
2023/09/23 11:23:45;;;;;;;44.47;28.08;;;29.40;99.90;;;;;;5061305;28;20028;-88
2023/09/23 11:26:53;;;;;;;35.85;26.83;;;29.50;99.90;;;;;;5076562;28;20024;-91
2023/09/23 11:29:27;;;;;;;38.22;27.52;;;29.70;99.90;;;;;;5055795;28;20040;-88
2023/09/23 11:31:54;;;;;;;32.75;26.83;;;30.00;99.90;;;;;;5039556;28;20037;-89
2023/09/23 11:34:20;;;;;;;33.03;26.90;;;30.20;99.90;;;;;;5040357;28;20057;-91
2023/09/23 11:36:47;;;;;;;38.97;27.80;;;30.30;99.90;;;;;;5056542;28;20112;-90
2023/09/23 11:39:14;;;;;;;34.25;27.75;;;30.20;99.90;;;;;;5039602;28;20037;-90
2023/09/23 11:41:40;;;;;;;36.70;26.90;;;30.40;99.90;;;;;;5039371;28;20021;-89
2023/09/23 11:44:07;;;;;;;35.95;28.20;;;30.40;99.90;;;;;;5039156;28;20039;-89
2023/09/23 11:46:36;;;;;;;43.55;28.95;;;30.50;99.90;;;;;;5039096;28;20107;-91
2023/09/23 11:49:13;;;;;;;42.45;27.58;;;30.40;99.90;;;;;;5057891;28;20064;-92
2023/09/23 11:51:40;;;;;;;40.22;28.33;;;30.70;99.90;;;;;;5058136;28;20037;-92
2023/09/23 11:54:08;;;;;;;36.95;28.33;;;30.80;99.90;;;;;;5039850;28;20523;-92
2023/09/23 11:56:35;;;;;;;37.42;29.52;;;30.90;99.90;;;;;;5039597;28;20044;-93
2023/09/23 11:59:02;;;;;;;39.55;29.10;;;31.30;99.90;;;;;;5055526;28;20394;-91
2023/09/23 12:01:30;;;;;;;43.60;31.13;;;31.60;99.90;;;;;;5038847;28;20481;-92
2023/09/23 12:03:58;;;;;;;38.95;32.00;;;31.50;99.90;;;;;;5038914;28;20041;-93
2023/09/23 12:06:36;;;;;;;39.42;31.40;;;31.50;99.90;;;;;;5056432;28;20426;-91
2023/09/23 12:09:24;;;;;;;38.42;31.02;;;31.60;99.90;;;;;;5042331;28;20037;-93
2023/09/23 12:11:56;;;;;;;42.88;33.35;;;31.50;99.90;;;;;;5041112;28;20040;-86
2023/09/23 12:14:23;;;;;;;43.53;31.73;;;31.50;99.90;;;;;;5054064;28;20048;-85
2023/09/23 12:16:50;;;;;;;37.40;30.60;;;31.60;99.90;;;;;;5037826;28;20102;-85
2023/09/23 12:19:17;;;;;;;36.88;28.77;;;31.50;99.90;;;;;;5073213;28;20052;-85
2023/09/23 12:21:44;;;;;;;30.45;27.55;;;31.10;99.90;;;;;;5057465;28;20064;-86
2023/09/23 12:24:11;;;;;;;34.75;28.35;;;31.10;99.90;;;;;;5074027;28;20054;-85
2023/09/23 12:26:47;;;;;;;31.35;28.05;;;31.10;99.90;;;;;;5057034;28;20024;-86
2023/09/23 12:29:33;;;;;;;33.67;28.30;;;31.40;99.90;;;;;;5073775;28;20024;-86
2023/09/23 12:32:01;;;;;;;34.83;27.85;;;31.40;99.90;;;;;;5073684;28;20043;-85
2023/09/23 12:34:30;;;;;;;35.63;27.73;;;31.10;99.90;;;;;;5057400;28;20473;-85
2023/09/23 12:36:58;;;;;;;31.92;27.65;;;30.50;99.90;;;;;;5074143;28;20083;-85
2023/09/23 12:39:25;;;;;;;37.45;27.98;;;30.60;99.90;;;;;;5074603;28;20021;-86
2023/09/23 12:41:52;;;;;;;35.92;27.85;;;30.60;99.90;;;;;;5074020;28;20040;-87
2023/09/23 12:44:19;;;;;;;33.30;28.30;;;30.60;99.90;;;;;;5074223;28;20025;-84
2023/09/23 12:46:54;;;;;;;30.55;27.25;;;30.30;99.90;;;;;;5074169;28;20059;-87
2023/09/23 12:49:21;;;;;;;36.38;27.52;;;30.20;99.90;;;;;;5053752;28;20032;-85
2023/09/23 12:51:48;;;;;;;37.17;29.63;;;30.30;99.90;;;;;;5053399;28;20036;-86
2023/09/23 12:54:14;;;;;;;35.05;29.23;;;30.40;99.90;;;;;;5053793;28;20032;-87
2023/09/23 12:56:41;;;;;;;31.48;27.63;;;30.50;99.90;;;;;;5054710;28;20219;-87
2023/09/23 12:59:08;;;;;;;38.35;27.65;;;30.50;99.90;;;;;;5072036;28;20032;-93
2023/09/23 13:01:35;;;;;;;47.75;31.58;;;30.20;99.90;;;;;;5059350;28;20027;-90
2023/09/23 13:04:02;;;;;;;35.05;27.52;;;30.10;99.90;;;;;;5075626;28;20036;-90